sensor_id;sensor_type;location;lat;lon;timestamp;P1;durP1;ratioP1;P2;durP2;ratioP2
31676;SDS011;18385;51.572;6.578;2024-02-26T00:01:55;4.45;;;1.48;;
31676;SDS011;18385;51.572;6.578;2024-02-26T00:04:21;2.90;;;1.25;;
31676;SDS011;18385;51.572;6.578;2024-02-26T00:06:48;3.00;;;1.20;;
31676;SDS011;18385;51.572;6.578;2024-02-26T00:09:16;2.85;;;1.17;;
31676;SDS011;18385;51.572;6.578;2024-02-26T00:11:42;2.83;;;1.15;;
31676;SDS011;18385;51.572;6.578;2024-02-26T00:14:07;2.63;;;1.05;;
31676;SDS011;18385;51.572;6.578;2024-02-26T00:16:33;2.08;;;1.10;;
31676;SDS011;18385;51.572;6.578;2024-02-26T00:18:59;1.58;;;0.90;;
31676;SDS011;18385;51.572;6.578;2024-02-26T00:21:24;1.75;;;0.80;;
31676;SDS011;18385;51.572;6.578;2024-02-26T00:23:50;5.32;;;1.08;;
31676;SDS011;18385;51.572;6.578;2024-02-26T00:26:16;2.65;;;1.15;;
31676;SDS011;18385;51.572;6.578;2024-02-26T00:28:42;2.50;;;0.85;;
31676;SDS011;18385;51.572;6.578;2024-02-26T00:31:08;2.17;;;0.88;;
31676;SDS011;18385;51.572;6.578;2024-02-26T00:33:34;2.70;;;1.05;;
31676;SDS011;18385;51.572;6.578;2024-02-26T00:35:59;3.65;;;1.30;;
31676;SDS011;18385;51.572;6.578;2024-02-26T00:38:25;2.17;;;1.15;;
31676;SDS011;18385;51.572;6.578;2024-02-26T00:40:51;1.70;;;0.68;;
31676;SDS011;18385;51.572;6.578;2024-02-26T00:43:16;1.80;;;0.63;;
31676;SDS011;18385;51.572;6.578;2024-02-26T00:45:42;2.33;;;0.80;;
31676;SDS011;18385;51.572;6.578;2024-02-26T00:48:07;2.67;;;1.00;;
31676;SDS011;18385;51.572;6.578;2024-02-26T00:50:33;1.65;;;1.00;;
31676;SDS011;18385;51.572;6.578;2024-02-26T00:53:00;3.00;;;0.80;;
31676;SDS011;18385;51.572;6.578;2024-02-26T00:55:26;1.80;;;0.85;;
31676;SDS011;18385;51.572;6.578;2024-02-26T00:57:52;1.95;;;0.80;;
31676;SDS011;18385;51.572;6.578;2024-02-26T01:00:17;1.85;;;0.90;;
31676;SDS011;18385;51.572;6.578;2024-02-26T01:02:43;1.42;;;0.80;;
31676;SDS011;18385;51.572;6.578;2024-02-26T01:05:12;3.35;;;0.88;;
31676;SDS011;18385;51.572;6.578;2024-02-26T01:07:38;1.48;;;0.63;;
31676;SDS011;18385;51.572;6.578;2024-02-26T01:10:04;2.63;;;1.00;;
31676;SDS011;18385;51.572;6.578;2024-02-26T01:12:33;3.22;;;1.17;;
31676;SDS011;18385;51.572;6.578;2024-02-26T01:15:00;1.70;;;1.00;;
31676;SDS011;18385;51.572;6.578;2024-02-26T01:19:54;2.05;;;0.70;;
31676;SDS011;18385;51.572;6.578;2024-02-26T01:22:21;2.40;;;1.42;;
31676;SDS011;18385;51.572;6.578;2024-02-26T01:24:46;3.50;;;1.00;;
31676;SDS011;18385;51.572;6.578;2024-02-26T01:27:12;2.55;;;1.15;;
31676;SDS011;18385;51.572;6.578;2024-02-26T01:29:39;2.75;;;1.00;;
31676;SDS011;18385;51.572;6.578;2024-02-26T01:32:05;3.22;;;1.02;;
31676;SDS011;18385;51.572;6.578;2024-02-26T01:34:31;2.65;;;0.80;;
31676;SDS011;18385;51.572;6.578;2024-02-26T01:36:56;3.83;;;0.95;;
31676;SDS011;18385;51.572;6.578;2024-02-26T01:39:22;2.45;;;1.20;;
31676;SDS011;18385;51.572;6.578;2024-02-26T01:41:48;2.38;;;1.10;;
31676;SDS011;18385;51.572;6.578;2024-02-26T01:44:14;2.00;;;0.98;;
31676;SDS011;18385;51.572;6.578;2024-02-26T01:46:39;3.92;;;1.17;;
31676;SDS011;18385;51.572;6.578;2024-02-26T01:49:05;2.80;;;1.10;;
31676;SDS011;18385;51.572;6.578;2024-02-26T01:51:32;2.28;;;1.02;;
31676;SDS011;18385;51.572;6.578;2024-02-26T01:53:59;2.45;;;0.80;;
31676;SDS011;18385;51.572;6.578;2024-02-26T01:56:27;2.33;;;1.10;;
31676;SDS011;18385;51.572;6.578;2024-02-26T01:58:56;1.95;;;1.00;;
31676;SDS011;18385;51.572;6.578;2024-02-26T02:01:24;2.08;;;1.02;;
31676;SDS011;18385;51.572;6.578;2024-02-26T02:03:52;2.78;;;1.10;;
31676;SDS011;18385;51.572;6.578;2024-02-26T02:06:19;2.38;;;0.95;;
31676;SDS011;18385;51.572;6.578;2024-02-26T02:08:46;2.50;;;0.90;;
31676;SDS011;18385;51.572;6.578;2024-02-26T02:11:12;4.25;;;0.98;;
31676;SDS011;18385;51.572;6.578;2024-02-26T02:13:40;1.88;;;0.82;;
31676;SDS011;18385;51.572;6.578;2024-02-26T02:16:06;2.72;;;1.10;;
31676;SDS011;18385;51.572;6.578;2024-02-26T02:18:32;1.60;;;0.70;;
31676;SDS011;18385;51.572;6.578;2024-02-26T02:20:59;1.45;;;0.73;;
31676;SDS011;18385;51.572;6.578;2024-02-26T02:23:25;2.70;;;0.82;;
31676;SDS011;18385;51.572;6.578;2024-02-26T02:25:51;1.83;;;0.80;;
31676;SDS011;18385;51.572;6.578;2024-02-26T02:28:18;2.42;;;0.82;;
31676;SDS011;18385;51.572;6.578;2024-02-26T02:30:44;1.80;;;1.00;;
31676;SDS011;18385;51.572;6.578;2024-02-26T02:33:10;2.45;;;1.00;;
31676;SDS011;18385;51.572;6.578;2024-02-26T02:35:37;3.78;;;0.98;;
31676;SDS011;18385;51.572;6.578;2024-02-26T02:38:03;1.92;;;0.70;;
31676;SDS011;18385;51.572;6.578;2024-02-26T02:40:29;2.25;;;1.00;;
31676;SDS011;18385;51.572;6.578;2024-02-26T02:42:54;2.25;;;0.77;;
31676;SDS011;18385;51.572;6.578;2024-02-26T02:45:20;1.88;;;0.77;;
31676;SDS011;18385;51.572;6.578;2024-02-26T02:47:45;2.33;;;1.00;;
31676;SDS011;18385;51.572;6.578;2024-02-26T02:50:11;1.85;;;0.85;;
31676;SDS011;18385;51.572;6.578;2024-02-26T02:52:37;3.60;;;0.88;;
31676;SDS011;18385;51.572;6.578;2024-02-26T02:55:02;2.08;;;1.00;;
31676;SDS011;18385;51.572;6.578;2024-02-26T02:57:29;2.10;;;0.73;;
31676;SDS011;18385;51.572;6.578;2024-02-26T02:59:55;2.65;;;0.93;;
31676;SDS011;18385;51.572;6.578;2024-02-26T03:02:21;1.88;;;0.70;;
31676;SDS011;18385;51.572;6.578;2024-02-26T03:04:48;2.92;;;0.80;;
31676;SDS011;18385;51.572;6.578;2024-02-26T03:07:14;1.70;;;0.95;;
31676;SDS011;18385;51.572;6.578;2024-02-26T03:09:39;1.80;;;0.80;;
31676;SDS011;18385;51.572;6.578;2024-02-26T03:12:06;1.73;;;0.77;;
31676;SDS011;18385;51.572;6.578;2024-02-26T03:14:31;2.70;;;0.90;;
31676;SDS011;18385;51.572;6.578;2024-02-26T03:16:57;2.45;;;0.90;;
31676;SDS011;18385;51.572;6.578;2024-02-26T03:19:23;1.35;;;0.60;;
31676;SDS011;18385;51.572;6.578;2024-02-26T03:21:49;2.58;;;1.00;;
31676;SDS011;18385;51.572;6.578;2024-02-26T03:24:14;1.23;;;0.70;;
31676;SDS011;18385;51.572;6.578;2024-02-26T03:26:40;1.90;;;0.80;;
31676;SDS011;18385;51.572;6.578;2024-02-26T03:29:06;2.28;;;1.20;;
31676;SDS011;18385;51.572;6.578;2024-02-26T03:31:31;1.80;;;0.85;;
31676;SDS011;18385;51.572;6.578;2024-02-26T03:33:57;2.35;;;0.90;;
31676;SDS011;18385;51.572;6.578;2024-02-26T03:36:23;3.10;;;0.70;;
31676;SDS011;18385;51.572;6.578;2024-02-26T03:38:48;3.30;;;0.80;;
31676;SDS011;18385;51.572;6.578;2024-02-26T03:41:14;1.63;;;1.05;;
31676;SDS011;18385;51.572;6.578;2024-02-26T03:43:40;2.83;;;0.95;;
31676;SDS011;18385;51.572;6.578;2024-02-26T03:46:09;1.63;;;0.80;;
31676;SDS011;18385;51.572;6.578;2024-02-26T03:48:36;3.63;;;1.20;;
31676;SDS011;18385;51.572;6.578;2024-02-26T03:51:02;2.78;;;1.30;;
31676;SDS011;18385;51.572;6.578;2024-02-26T03:53:28;2.92;;;1.40;;
31676;SDS011;18385;51.572;6.578;2024-02-26T03:55:53;3.72;;;1.02;;
31676;SDS011;18385;51.572;6.578;2024-02-26T03:58:20;1.80;;;0.80;;
31676;SDS011;18385;51.572;6.578;2024-02-26T04:00:46;2.53;;;1.20;;
31676;SDS011;18385;51.572;6.578;2024-02-26T04:03:13;3.13;;;0.90;;
31676;SDS011;18385;51.572;6.578;2024-02-26T04:05:38;4.00;;;0.93;;
31676;SDS011;18385;51.572;6.578;2024-02-26T04:08:04;2.20;;;0.90;;
31676;SDS011;18385;51.572;6.578;2024-02-26T04:10:32;2.42;;;1.10;;
31676;SDS011;18385;51.572;6.578;2024-02-26T04:13:00;3.75;;;1.13;;
31676;SDS011;18385;51.572;6.578;2024-02-26T04:15:26;2.35;;;0.93;;
31676;SDS011;18385;51.572;6.578;2024-02-26T04:17:51;1.98;;;1.08;;
31676;SDS011;18385;51.572;6.578;2024-02-26T04:20:17;1.70;;;1.17;;
31676;SDS011;18385;51.572;6.578;2024-02-26T04:22:43;2.13;;;1.00;;
31676;SDS011;18385;51.572;6.578;2024-02-26T04:25:09;1.52;;;0.93;;
31676;SDS011;18385;51.572;6.578;2024-02-26T04:27:35;3.72;;;1.20;;
31676;SDS011;18385;51.572;6.578;2024-02-26T04:30:01;2.40;;;1.05;;
31676;SDS011;18385;51.572;6.578;2024-02-26T04:32:26;1.80;;;1.00;;
31676;SDS011;18385;51.572;6.578;2024-02-26T04:34:53;2.05;;;0.90;;
31676;SDS011;18385;51.572;6.578;2024-02-26T04:37:19;2.03;;;0.90;;
31676;SDS011;18385;51.572;6.578;2024-02-26T04:39:44;1.92;;;0.80;;
31676;SDS011;18385;51.572;6.578;2024-02-26T04:42:10;2.28;;;1.38;;
31676;SDS011;18385;51.572;6.578;2024-02-26T04:44:36;3.42;;;0.90;;
31676;SDS011;18385;51.572;6.578;2024-02-26T04:47:02;1.67;;;0.90;;
31676;SDS011;18385;51.572;6.578;2024-02-26T04:49:27;2.15;;;1.35;;
31676;SDS011;18385;51.572;6.578;2024-02-26T04:51:54;1.95;;;1.27;;
31676;SDS011;18385;51.572;6.578;2024-02-26T04:54:20;2.75;;;0.80;;
31676;SDS011;18385;51.572;6.578;2024-02-26T04:56:46;1.45;;;0.68;;
31676;SDS011;18385;51.572;6.578;2024-02-26T04:59:12;1.48;;;0.70;;
31676;SDS011;18385;51.572;6.578;2024-02-26T05:01:37;4.70;;;0.80;;
31676;SDS011;18385;51.572;6.578;2024-02-26T05:04:04;2.03;;;0.90;;
31676;SDS011;18385;51.572;6.578;2024-02-26T05:06:30;5.20;;;1.05;;
31676;SDS011;18385;51.572;6.578;2024-02-26T05:08:56;1.45;;;0.70;;
31676;SDS011;18385;51.572;6.578;2024-02-26T05:11:21;2.50;;;0.68;;
31676;SDS011;18385;51.572;6.578;2024-02-26T05:13:50;1.98;;;0.90;;
31676;SDS011;18385;51.572;6.578;2024-02-26T05:16:16;3.28;;;0.95;;
31676;SDS011;18385;51.572;6.578;2024-02-26T05:18:41;2.25;;;0.80;;
31676;SDS011;18385;51.572;6.578;2024-02-26T05:21:07;1.75;;;0.88;;
31676;SDS011;18385;51.572;6.578;2024-02-26T05:23:32;1.90;;;0.90;;
31676;SDS011;18385;51.572;6.578;2024-02-26T05:25:58;1.40;;;0.80;;
31676;SDS011;18385;51.572;6.578;2024-02-26T05:28:23;2.28;;;1.02;;
31676;SDS011;18385;51.572;6.578;2024-02-26T05:30:49;2.08;;;0.73;;
31676;SDS011;18385;51.572;6.578;2024-02-26T05:33:15;1.83;;;0.80;;
31676;SDS011;18385;51.572;6.578;2024-02-26T05:35:40;4.05;;;1.08;;
31676;SDS011;18385;51.572;6.578;2024-02-26T05:38:06;1.63;;;0.95;;
31676;SDS011;18385;51.572;6.578;2024-02-26T05:40:32;2.53;;;1.10;;
31676;SDS011;18385;51.572;6.578;2024-02-26T05:42:58;1.58;;;0.80;;
31676;SDS011;18385;51.572;6.578;2024-02-26T05:45:24;1.88;;;1.25;;
31676;SDS011;18385;51.572;6.578;2024-02-26T05:47:49;2.25;;;1.15;;
31676;SDS011;18385;51.572;6.578;2024-02-26T05:50:15;1.75;;;0.90;;
31676;SDS011;18385;51.572;6.578;2024-02-26T05:52:41;2.22;;;0.77;;
31676;SDS011;18385;51.572;6.578;2024-02-26T05:55:07;1.92;;;0.93;;
31676;SDS011;18385;51.572;6.578;2024-02-26T05:57:33;2.63;;;1.20;;
31676;SDS011;18385;51.572;6.578;2024-02-26T05:59:59;2.65;;;1.05;;
31676;SDS011;18385;51.572;6.578;2024-02-26T06:02:36;3.28;;;1.13;;
31676;SDS011;18385;51.572;6.578;2024-02-26T06:05:02;2.55;;;1.30;;
31676;SDS011;18385;51.572;6.578;2024-02-26T06:07:28;3.08;;;1.20;;
31676;SDS011;18385;51.572;6.578;2024-02-26T06:09:54;2.17;;;0.95;;
31676;SDS011;18385;51.572;6.578;2024-02-26T06:12:19;2.10;;;0.85;;
31676;SDS011;18385;51.572;6.578;2024-02-26T06:14:45;3.03;;;1.25;;
31676;SDS011;18385;51.572;6.578;2024-02-26T06:17:11;2.20;;;1.05;;
31676;SDS011;18385;51.572;6.578;2024-02-26T06:19:36;4.20;;;1.10;;
31676;SDS011;18385;51.572;6.578;2024-02-26T06:22:02;3.60;;;1.23;;
31676;SDS011;18385;51.572;6.578;2024-02-26T06:24:27;3.40;;;1.45;;
31676;SDS011;18385;51.572;6.578;2024-02-26T06:26:53;2.83;;;1.00;;
31676;SDS011;18385;51.572;6.578;2024-02-26T06:29:19;3.67;;;1.48;;
31676;SDS011;18385;51.572;6.578;2024-02-26T06:31:45;2.63;;;1.30;;
31676;SDS011;18385;51.572;6.578;2024-02-26T06:34:10;3.60;;;1.00;;
31676;SDS011;18385;51.572;6.578;2024-02-26T06:36:36;1.98;;;1.15;;
31676;SDS011;18385;51.572;6.578;2024-02-26T06:39:02;3.13;;;1.20;;
31676;SDS011;18385;51.572;6.578;2024-02-26T06:41:28;2.35;;;1.20;;
31676;SDS011;18385;51.572;6.578;2024-02-26T06:43:55;3.25;;;1.40;;
31676;SDS011;18385;51.572;6.578;2024-02-26T06:46:21;3.50;;;1.30;;
31676;SDS011;18385;51.572;6.578;2024-02-26T06:48:50;3.78;;;1.00;;
31676;SDS011;18385;51.572;6.578;2024-02-26T06:53:42;3.58;;;1.00;;
31676;SDS011;18385;51.572;6.578;2024-02-26T06:56:07;3.78;;;1.40;;
31676;SDS011;18385;51.572;6.578;2024-02-26T06:58:33;3.17;;;1.45;;
31676;SDS011;18385;51.572;6.578;2024-02-26T07:00:59;1.45;;;0.90;;
31676;SDS011;18385;51.572;6.578;2024-02-26T07:03:24;3.20;;;1.63;;
31676;SDS011;18385;51.572;6.578;2024-02-26T07:05:50;3.53;;;1.42;;
31676;SDS011;18385;51.572;6.578;2024-02-26T07:08:17;12.40;;;4.47;;
31676;SDS011;18385;51.572;6.578;2024-02-26T07:10:43;7.70;;;3.60;;
31676;SDS011;18385;51.572;6.578;2024-02-26T07:13:08;11.05;;;5.00;;
31676;SDS011;18385;51.572;6.578;2024-02-26T07:15:34;5.80;;;2.33;;
31676;SDS011;18385;51.572;6.578;2024-02-26T07:18:00;8.65;;;4.05;;
31676;SDS011;18385;51.572;6.578;2024-02-26T07:20:29;11.13;;;4.80;;
31676;SDS011;18385;51.572;6.578;2024-02-26T07:22:55;13.73;;;6.43;;
31676;SDS011;18385;51.572;6.578;2024-02-26T07:25:21;11.27;;;5.32;;
31676;SDS011;18385;51.572;6.578;2024-02-26T07:27:47;19.48;;;6.45;;
31676;SDS011;18385;51.572;6.578;2024-02-26T07:30:13;30.00;;;11.48;;
31676;SDS011;18385;51.572;6.578;2024-02-26T07:32:39;17.30;;;5.95;;
31676;SDS011;18385;51.572;6.578;2024-02-26T07:35:04;10.02;;;3.47;;
31676;SDS011;18385;51.572;6.578;2024-02-26T07:37:30;11.32;;;4.13;;
31676;SDS011;18385;51.572;6.578;2024-02-26T07:39:56;13.18;;;4.47;;
31676;SDS011;18385;51.572;6.578;2024-02-26T07:42:22;9.30;;;3.40;;
31676;SDS011;18385;51.572;6.578;2024-02-26T07:44:47;6.05;;;1.70;;
31676;SDS011;18385;51.572;6.578;2024-02-26T07:47:13;5.32;;;1.40;;
31676;SDS011;18385;51.572;6.578;2024-02-26T07:49:39;5.03;;;1.58;;
31676;SDS011;18385;51.572;6.578;2024-02-26T07:52:06;6.05;;;2.50;;
31676;SDS011;18385;51.572;6.578;2024-02-26T07:54:31;2.35;;;1.15;;
31676;SDS011;18385;51.572;6.578;2024-02-26T07:56:57;2.50;;;1.02;;
31676;SDS011;18385;51.572;6.578;2024-02-26T07:59:23;7.43;;;2.30;;
31676;SDS011;18385;51.572;6.578;2024-02-26T08:01:50;5.97;;;1.95;;
31676;SDS011;18385;51.572;6.578;2024-02-26T08:04:16;2.75;;;1.30;;
31676;SDS011;18385;51.572;6.578;2024-02-26T08:06:42;8.90;;;2.55;;
31676;SDS011;18385;51.572;6.578;2024-02-26T08:09:08;3.35;;;1.65;;
31676;SDS011;18385;51.572;6.578;2024-02-26T08:11:34;6.43;;;2.92;;
31676;SDS011;18385;51.572;6.578;2024-02-26T08:14:00;2.60;;;1.67;;
31676;SDS011;18385;51.572;6.578;2024-02-26T08:16:28;2.15;;;0.77;;
31676;SDS011;18385;51.572;6.578;2024-02-26T08:18:54;2.67;;;0.90;;
31676;SDS011;18385;51.572;6.578;2024-02-26T08:21:23;3.47;;;1.23;;
31676;SDS011;18385;51.572;6.578;2024-02-26T08:23:49;4.00;;;1.40;;
31676;SDS011;18385;51.572;6.578;2024-02-26T08:26:14;5.32;;;1.80;;
31676;SDS011;18385;51.572;6.578;2024-02-26T08:28:40;2.13;;;1.05;;
31676;SDS011;18385;51.572;6.578;2024-02-26T08:31:05;3.65;;;1.08;;
31676;SDS011;18385;51.572;6.578;2024-02-26T08:33:32;2.40;;;1.00;;
31676;SDS011;18385;51.572;6.578;2024-02-26T08:36:02;3.15;;;0.90;;
31676;SDS011;18385;51.572;6.578;2024-02-26T08:38:29;4.43;;;0.98;;
31676;SDS011;18385;51.572;6.578;2024-02-26T08:40:55;3.58;;;1.27;;
31676;SDS011;18385;51.572;6.578;2024-02-26T08:43:21;2.00;;;0.80;;
31676;SDS011;18385;51.572;6.578;2024-02-26T08:45:46;3.75;;;0.98;;
31676;SDS011;18385;51.572;6.578;2024-02-26T08:48:12;2.53;;;0.80;;
31676;SDS011;18385;51.572;6.578;2024-02-26T08:50:38;3.30;;;1.15;;
31676;SDS011;18385;51.572;6.578;2024-02-26T08:53:03;3.83;;;0.90;;
31676;SDS011;18385;51.572;6.578;2024-02-26T08:55:30;1.55;;;0.80;;
31676;SDS011;18385;51.572;6.578;2024-02-26T08:57:56;3.95;;;1.13;;
31676;SDS011;18385;51.572;6.578;2024-02-26T09:00:22;2.03;;;1.02;;
31676;SDS011;18385;51.572;6.578;2024-02-26T09:02:47;2.33;;;0.90;;
31676;SDS011;18385;51.572;6.578;2024-02-26T09:05:14;4.38;;;1.02;;
31676;SDS011;18385;51.572;6.578;2024-02-26T09:07:40;5.03;;;1.15;;
31676;SDS011;18385;51.572;6.578;2024-02-26T09:10:05;2.63;;;1.15;;
31676;SDS011;18385;51.572;6.578;2024-02-26T09:12:34;2.80;;;0.90;;
31676;SDS011;18385;51.572;6.578;2024-02-26T09:14:59;3.38;;;1.50;;
31676;SDS011;18385;51.572;6.578;2024-02-26T09:17:25;4.20;;;1.10;;
31676;SDS011;18385;51.572;6.578;2024-02-26T09:19:51;6.15;;;0.88;;
31676;SDS011;18385;51.572;6.578;2024-02-26T09:22:16;1.83;;;0.82;;
31676;SDS011;18385;51.572;6.578;2024-02-26T09:24:42;3.67;;;0.80;;
31676;SDS011;18385;51.572;6.578;2024-02-26T09:27:08;2.30;;;0.80;;
31676;SDS011;18385;51.572;6.578;2024-02-26T09:29:35;2.03;;;0.80;;
31676;SDS011;18385;51.572;6.578;2024-02-26T09:32:01;6.32;;;0.93;;
31676;SDS011;18385;51.572;6.578;2024-02-26T09:34:27;3.78;;;1.08;;
31676;SDS011;18385;51.572;6.578;2024-02-26T09:36:53;1.77;;;0.93;;
31676;SDS011;18385;51.572;6.578;2024-02-26T09:39:18;1.75;;;0.63;;
31676;SDS011;18385;51.572;6.578;2024-02-26T09:41:50;1.02;;;0.65;;
31676;SDS011;18385;51.572;6.578;2024-02-26T09:44:18;1.55;;;0.80;;
31676;SDS011;18385;51.572;6.578;2024-02-26T09:46:45;2.58;;;1.10;;
31676;SDS011;18385;51.572;6.578;2024-02-26T09:49:14;3.45;;;1.15;;
31676;SDS011;18385;51.572;6.578;2024-02-26T09:51:41;1.45;;;0.80;;
31676;SDS011;18385;51.572;6.578;2024-02-26T09:54:07;3.72;;;1.10;;
31676;SDS011;18385;51.572;6.578;2024-02-26T09:56:35;4.13;;;1.00;;
31676;SDS011;18385;51.572;6.578;2024-02-26T09:59:03;1.77;;;0.90;;
31676;SDS011;18385;51.572;6.578;2024-02-26T10:01:35;2.88;;;1.20;;
31676;SDS011;18385;51.572;6.578;2024-02-26T10:04:04;2.03;;;1.00;;
31676;SDS011;18385;51.572;6.578;2024-02-26T10:06:30;2.10;;;1.08;;
31676;SDS011;18385;51.572;6.578;2024-02-26T10:09:04;2.80;;;1.30;;
31676;SDS011;18385;51.572;6.578;2024-02-26T10:11:34;2.60;;;1.25;;
31676;SDS011;18385;51.572;6.578;2024-02-26T10:14:02;2.88;;;1.23;;
31676;SDS011;18385;51.572;6.578;2024-02-26T10:16:28;3.38;;;1.40;;
31676;SDS011;18385;51.572;6.578;2024-02-26T10:18:54;3.40;;;1.50;;
31676;SDS011;18385;51.572;6.578;2024-02-26T10:21:20;3.97;;;1.75;;
31676;SDS011;18385;51.572;6.578;2024-02-26T10:23:47;2.50;;;1.40;;
31676;SDS011;18385;51.572;6.578;2024-02-26T10:26:14;2.75;;;1.35;;
31676;SDS011;18385;51.572;6.578;2024-02-26T10:28:41;5.20;;;1.77;;
31676;SDS011;18385;51.572;6.578;2024-02-26T10:31:08;6.05;;;1.45;;
31676;SDS011;18385;51.572;6.578;2024-02-26T10:33:35;4.65;;;1.88;;
31676;SDS011;18385;51.572;6.578;2024-02-26T10:36:02;4.57;;;2.58;;
31676;SDS011;18385;51.572;6.578;2024-02-26T10:38:33;4.85;;;1.77;;
31676;SDS011;18385;51.572;6.578;2024-02-26T10:41:01;4.22;;;1.80;;
31676;SDS011;18385;51.572;6.578;2024-02-26T10:43:28;6.20;;;2.33;;
31676;SDS011;18385;51.572;6.578;2024-02-26T10:45:57;3.10;;;1.75;;
31676;SDS011;18385;51.572;6.578;2024-02-26T10:48:23;6.53;;;2.30;;
31676;SDS011;18385;51.572;6.578;2024-02-26T10:50:49;4.80;;;2.05;;
31676;SDS011;18385;51.572;6.578;2024-02-26T10:53:22;5.00;;;2.47;;
31676;SDS011;18385;51.572;6.578;2024-02-26T10:55:49;6.78;;;2.50;;
31676;SDS011;18385;51.572;6.578;2024-02-26T10:58:28;5.68;;;2.40;;
31676;SDS011;18385;51.572;6.578;2024-02-26T11:00:56;7.30;;;2.70;;
31676;SDS011;18385;51.572;6.578;2024-02-26T11:03:35;3.75;;;2.30;;
31676;SDS011;18385;51.572;6.578;2024-02-26T11:06:09;4.65;;;2.33;;
31676;SDS011;18385;51.572;6.578;2024-02-26T11:08:37;4.97;;;2.42;;
31676;SDS011;18385;51.572;6.578;2024-02-26T11:11:03;3.63;;;2.30;;
31676;SDS011;18385;51.572;6.578;2024-02-26T11:13:30;5.93;;;2.97;;
31676;SDS011;18385;51.572;6.578;2024-02-26T11:16:08;4.60;;;2.50;;
31676;SDS011;18385;51.572;6.578;2024-02-26T11:18:42;4.82;;;2.10;;
31676;SDS011;18385;51.572;6.578;2024-02-26T11:21:23;5.07;;;2.75;;
31676;SDS011;18385;51.572;6.578;2024-02-26T11:24:08;5.05;;;2.33;;
31676;SDS011;18385;51.572;6.578;2024-02-26T11:26:49;4.47;;;2.80;;
31676;SDS011;18385;51.572;6.578;2024-02-26T11:29:39;5.18;;;2.58;;
31676;SDS011;18385;51.572;6.578;2024-02-26T11:34:35;4.90;;;2.58;;
31676;SDS011;18385;51.572;6.578;2024-02-26T11:37:11;5.68;;;2.63;;
31676;SDS011;18385;51.572;6.578;2024-02-26T11:39:41;4.32;;;2.47;;
31676;SDS011;18385;51.572;6.578;2024-02-26T11:42:08;7.20;;;3.55;;
31676;SDS011;18385;51.572;6.578;2024-02-26T11:44:34;6.63;;;2.83;;
31676;SDS011;18385;51.572;6.578;2024-02-26T11:47:13;5.50;;;2.70;;
31676;SDS011;18385;51.572;6.578;2024-02-26T11:49:45;6.38;;;2.92;;
31676;SDS011;18385;51.572;6.578;2024-02-26T11:52:12;6.85;;;2.83;;
31676;SDS011;18385;51.572;6.578;2024-02-26T11:54:39;6.75;;;2.70;;
31676;SDS011;18385;51.572;6.578;2024-02-26T11:57:25;6.97;;;3.05;;
31676;SDS011;18385;51.572;6.578;2024-02-26T11:59:53;5.53;;;2.90;;
31676;SDS011;18385;51.572;6.578;2024-02-26T12:05:11;5.18;;;3.10;;
31676;SDS011;18385;51.572;6.578;2024-02-26T12:07:44;6.72;;;3.30;;
31676;SDS011;18385;51.572;6.578;2024-02-26T12:10:16;5.75;;;3.38;;
31676;SDS011;18385;51.572;6.578;2024-02-26T12:12:52;7.97;;;3.08;;
31676;SDS011;18385;51.572;6.578;2024-02-26T12:15:33;5.10;;;2.75;;
31676;SDS011;18385;51.572;6.578;2024-02-26T12:18:02;4.43;;;2.50;;
31676;SDS011;18385;51.572;6.578;2024-02-26T12:20:29;5.75;;;2.67;;
31676;SDS011;18385;51.572;6.578;2024-02-26T12:22:55;5.95;;;2.88;;
31676;SDS011;18385;51.572;6.578;2024-02-26T12:25:25;5.68;;;2.80;;
31676;SDS011;18385;51.572;6.578;2024-02-26T12:27:53;5.18;;;2.80;;
31676;SDS011;18385;51.572;6.578;2024-02-26T12:30:19;6.18;;;3.08;;
31676;SDS011;18385;51.572;6.578;2024-02-26T12:32:45;4.72;;;2.47;;
31676;SDS011;18385;51.572;6.578;2024-02-26T12:35:15;4.90;;;2.40;;
31676;SDS011;18385;51.572;6.578;2024-02-26T12:37:41;7.40;;;3.67;;
31676;SDS011;18385;51.572;6.578;2024-02-26T12:40:08;6.78;;;2.88;;
31676;SDS011;18385;51.572;6.578;2024-02-26T12:42:35;5.05;;;2.88;;
31676;SDS011;18385;51.572;6.578;2024-02-26T12:45:05;6.38;;;2.67;;
31676;SDS011;18385;51.572;6.578;2024-02-26T12:47:38;5.38;;;3.08;;
31676;SDS011;18385;51.572;6.578;2024-02-26T12:50:04;5.05;;;2.50;;
31676;SDS011;18385;51.572;6.578;2024-02-26T12:52:32;6.40;;;2.78;;
31676;SDS011;18385;51.572;6.578;2024-02-26T12:54:58;5.28;;;2.40;;
31676;SDS011;18385;51.572;6.578;2024-02-26T12:57:25;6.57;;;3.00;;
31676;SDS011;18385;51.572;6.578;2024-02-26T12:59:52;4.00;;;2.55;;
31676;SDS011;18385;51.572;6.578;2024-02-26T13:02:17;4.30;;;2.50;;
31676;SDS011;18385;51.572;6.578;2024-02-26T13:04:43;4.57;;;2.67;;
31676;SDS011;18385;51.572;6.578;2024-02-26T13:07:09;4.70;;;2.45;;
31676;SDS011;18385;51.572;6.578;2024-02-26T13:09:35;6.65;;;2.60;;
31676;SDS011;18385;51.572;6.578;2024-02-26T13:12:03;3.58;;;2.30;;
31676;SDS011;18385;51.572;6.578;2024-02-26T13:14:30;4.43;;;2.42;;
31676;SDS011;18385;51.572;6.578;2024-02-26T13:16:57;4.10;;;2.05;;
31676;SDS011;18385;51.572;6.578;2024-02-26T13:19:23;5.90;;;2.45;;
31676;SDS011;18385;51.572;6.578;2024-02-26T13:21:49;5.03;;;2.67;;
31676;SDS011;18385;51.572;6.578;2024-02-26T13:24:15;4.03;;;1.92;;
31676;SDS011;18385;51.572;6.578;2024-02-26T13:26:41;4.88;;;2.45;;
31676;SDS011;18385;51.572;6.578;2024-02-26T13:29:07;3.80;;;1.75;;
31676;SDS011;18385;51.572;6.578;2024-02-26T13:31:39;3.85;;;2.05;;
31676;SDS011;18385;51.572;6.578;2024-02-26T13:34:05;3.60;;;2.13;;
31676;SDS011;18385;51.572;6.578;2024-02-26T13:36:30;3.78;;;2.17;;
31676;SDS011;18385;51.572;6.578;2024-02-26T13:38:56;3.72;;;1.63;;
31676;SDS011;18385;51.572;6.578;2024-02-26T13:41:22;4.03;;;2.20;;
31676;SDS011;18385;51.572;6.578;2024-02-26T13:43:48;2.90;;;1.73;;
31676;SDS011;18385;51.572;6.578;2024-02-26T13:46:15;4.50;;;2.00;;
31676;SDS011;18385;51.572;6.578;2024-02-26T13:48:42;3.75;;;1.80;;
31676;SDS011;18385;51.572;6.578;2024-02-26T13:51:08;3.33;;;1.65;;
31676;SDS011;18385;51.572;6.578;2024-02-26T13:53:35;4.85;;;1.90;;
31676;SDS011;18385;51.572;6.578;2024-02-26T13:56:00;3.53;;;1.90;;
31676;SDS011;18385;51.572;6.578;2024-02-26T13:58:27;3.13;;;1.63;;
31676;SDS011;18385;51.572;6.578;2024-02-26T14:00:53;4.07;;;2.10;;
31676;SDS011;18385;51.572;6.578;2024-02-26T14:03:19;3.30;;;1.90;;
31676;SDS011;18385;51.572;6.578;2024-02-26T14:05:45;4.47;;;1.90;;
31676;SDS011;18385;51.572;6.578;2024-02-26T14:08:12;3.78;;;2.05;;
31676;SDS011;18385;51.572;6.578;2024-02-26T14:10:38;4.20;;;2.17;;
31676;SDS011;18385;51.572;6.578;2024-02-26T14:13:04;3.85;;;2.10;;
31676;SDS011;18385;51.572;6.578;2024-02-26T14:15:30;4.97;;;2.22;;
31676;SDS011;18385;51.572;6.578;2024-02-26T14:17:56;4.07;;;2.28;;
31676;SDS011;18385;51.572;6.578;2024-02-26T14:20:22;3.97;;;2.20;;
31676;SDS011;18385;51.572;6.578;2024-02-26T14:22:49;3.47;;;2.00;;
31676;SDS011;18385;51.572;6.578;2024-02-26T14:25:18;5.18;;;2.30;;
31676;SDS011;18385;51.572;6.578;2024-02-26T14:27:47;4.22;;;2.30;;
31676;SDS011;18385;51.572;6.578;2024-02-26T14:30:13;4.55;;;2.75;;
31676;SDS011;18385;51.572;6.578;2024-02-26T14:32:40;6.10;;;3.15;;
31676;SDS011;18385;51.572;6.578;2024-02-26T14:35:06;4.70;;;2.55;;
31676;SDS011;18385;51.572;6.578;2024-02-26T14:37:34;6.03;;;2.88;;
31676;SDS011;18385;51.572;6.578;2024-02-26T14:40:00;6.63;;;3.22;;
31676;SDS011;18385;51.572;6.578;2024-02-26T14:42:28;7.10;;;3.67;;
31676;SDS011;18385;51.572;6.578;2024-02-26T14:44:54;7.45;;;3.53;;
31676;SDS011;18385;51.572;6.578;2024-02-26T14:47:20;7.28;;;3.13;;
31676;SDS011;18385;51.572;6.578;2024-02-26T14:49:45;6.72;;;3.00;;
31676;SDS011;18385;51.572;6.578;2024-02-26T14:52:14;7.93;;;3.53;;
31676;SDS011;18385;51.572;6.578;2024-02-26T14:54:40;8.35;;;4.22;;
31676;SDS011;18385;51.572;6.578;2024-02-26T14:57:10;7.63;;;3.13;;